Time;durP1;ratioP1;P1;durP2;ratioP2;P2;SDS_P1;SDS_P2;PMS_P1;PMS_P2;Temp;Humidity;BMP_temperature;BMP_pressure;BME280_temperature;BME280_humidity;BME280_pressure;Samples;Min_cycle;Max_cycle;Signal;HPM_P1;HPM_P2
2022/01/21 00:00:50;;;;;;;9.07;2.13;;;0.60;1.00;;;;;;5052499;28;20474;-57
2022/01/21 00:03:16;;;;;;;10.20;2.40;;;0.50;1.00;;;;;;5052492;28;20457;-58
2022/01/21 00:05:43;;;;;;;7.50;2.63;;;0.40;1.00;;;;;;5052353;28;20957;-58
2022/01/21 00:08:10;;;;;;;5.47;2.07;;;0.50;1.00;;;;;;5052576;28;20513;-59
2022/01/21 00:10:38;;;;;;;12.87;2.47;;;0.40;1.00;;;;;;5052463;28;20470;-57
2022/01/21 00:13:14;;;;;;;10.33;2.77;;;0.40;1.00;;;;;;5052538;28;20457;-55
2022/01/21 00:15:41;;;;;;;7.37;2.20;;;0.40;1.00;;;;;;5052011;28;20507;-57
2022/01/21 00:18:09;;;;;;;6.93;2.50;;;0.50;1.00;;;;;;5052353;28;20890;-60
2022/01/21 00:31:33;;;;;;;9.30;3.17;;;0.50;1.00;;;;;;5052001;28;20490;-59
2022/01/21 00:34:00;;;;;;;6.00;2.33;;;0.60;1.00;;;;;;5051971;28;20451;-59
2022/01/21 00:36:27;;;;;;;11.77;3.10;;;0.60;1.00;;;;;;5051805;28;20504;-60
2022/01/21 00:38:55;;;;;;;13.33;3.57;;;0.60;1.00;;;;;;5051833;28;20482;-59
2022/01/21 00:41:28;;;;;;;9.73;3.87;;;0.60;1.00;;;;;;5052209;28;20909;-55
2022/01/21 00:43:54;;;;;;;8.63;3.43;;;0.50;1.00;;;;;;5052083;28;20492;-59
2022/01/21 00:46:21;;;;;;;15.47;4.00;;;0.60;1.00;;;;;;5051530;28;20953;-59
2022/01/21 00:48:48;;;;;;;11.87;3.67;;;0.60;1.00;;;;;;5052195;28;21030;-54
2022/01/21 00:51:15;;;;;;;13.67;3.57;;;0.60;1.00;;;;;;5051494;28;20472;-59
2022/01/21 00:53:42;;;;;;;16.77;3.43;;;0.70;1.00;;;;;;5051590;28;20444;-57
2022/01/21 00:56:08;;;;;;;9.50;3.97;;;0.70;1.00;;;;;;5051742;28;20459;-58
2022/01/21 00:58:36;;;;;;;10.70;3.37;;;0.70;1.00;;;;;;5051963;28;20487;-57
2022/01/21 01:01:03;;;;;;;13.70;3.63;;;0.60;1.00;;;;;;5052036;28;20533;-57
2022/01/21 01:03:30;;;;;;;11.23;3.27;;;0.60;1.00;;;;;;5051499;28;20448;-59
2022/01/21 01:05:57;;;;;;;13.53;3.57;;;0.70;1.00;;;;;;5051539;28;21016;-60
2022/01/21 01:08:23;;;;;;;8.60;3.27;;;0.70;1.00;;;;;;5051564;28;20446;-58
2022/01/21 01:11:14;;;;;;;9.60;3.23;;;0.70;1.00;;;;;;5051941;28;20525;-59
2022/01/21 01:21:56;;;;;;;8.07;2.70;;;0.70;1.00;;;;;;5051701;28;20455;-57
2022/01/21 01:29:53;;;;;;;15.93;3.37;;;0.70;1.00;;;;;;5051858;28;20558;-59
2022/01/21 01:32:20;;;;;;;8.80;3.37;;;0.70;1.00;;;;;;5051610;28;20453;-59
2022/01/21 01:34:47;;;;;;;8.73;3.50;;;0.70;1.00;;;;;;5051304;28;20444;-59
2022/01/21 01:37:26;;;;;;;8.90;3.00;;;0.60;1.00;;;;;;5051383;28;20443;-59
2022/01/21 01:40:03;;;;;;;13.23;3.37;;;0.60;1.00;;;;;;5051341;28;21019;-58
2022/01/21 01:42:55;;;;;;;8.67;3.30;;;0.60;1.00;;;;;;5051287;28;20453;-57
2022/01/21 01:51:05;;;;;;;14.43;4.10;;;0.40;1.00;;;;;;5050843;28;20455;-57
2022/01/21 01:53:36;;;;;;;16.17;4.27;;;0.40;1.00;;;;;;5050928;28;20448;-59
2022/01/21 01:56:06;;;;;;;13.93;3.60;;;0.40;1.00;;;;;;5051381;28;20455;-59
2022/01/21 01:58:36;;;;;;;9.17;3.83;;;0.40;1.00;;;;;;5051168;28;20471;-60
2022/01/21 02:01:04;;;;;;;13.60;3.87;;;0.40;1.00;;;;;;5051200;28;20469;-58
2022/01/21 02:03:32;;;;;;;13.17;3.60;;;0.40;1.00;;;;;;5051132;28;20503;-57
2022/01/21 02:05:59;;;;;;;11.97;4.07;;;0.50;1.00;;;;;;5051544;28;20453;-57
2022/01/21 02:08:27;;;;;;;14.97;3.97;;;0.60;1.00;;;;;;5054925;28;20446;-56
2022/01/21 02:10:54;;;;;;;12.50;3.20;;;0.60;1.00;;;;;;5054645;28;20523;-59
2022/01/21 02:13:23;;;;;;;8.03;3.40;;;0.60;1.00;;;;;;5054870;28;20447;-59
2022/01/21 02:16:02;;;;;;;10.80;3.40;;;0.60;1.00;;;;;;5054595;28;20515;-60
2022/01/21 02:21:31;;;;;;;9.00;3.93;;;0.60;1.00;;;;;;5054226;28;20586;-58
2022/01/21 02:24:00;;;;;;;12.70;3.50;;;0.60;1.00;;;;;;5054563;28;20452;-58
2022/01/21 02:26:28;;;;;;;11.83;3.03;;;0.60;1.00;;;;;;5054465;28;20451;-59
2022/01/21 02:28:55;;;;;;;14.37;3.33;;;0.70;1.00;;;;;;5054130;28;20451;-59
2022/01/21 02:31:22;;;;;;;12.87;3.70;;;0.60;1.00;;;;;;5054520;28;20510;-59
2022/01/21 02:33:49;;;;;;;8.33;3.63;;;0.70;1.00;;;;;;5055166;28;20508;-59
2022/01/21 02:36:17;;;;;;;11.03;3.77;;;0.70;1.00;;;;;;5059114;28;20455;-59
2022/01/21 02:38:44;;;;;;;13.67;3.40;;;0.80;1.00;;;;;;5054826;28;20455;-59
2022/01/21 02:41:11;;;;;;;10.67;3.60;;;0.80;1.00;;;;;;5055038;28;20475;-59
2022/01/21 02:43:38;;;;;;;15.37;3.43;;;0.90;1.00;;;;;;5055125;28;20570;-59
2022/01/21 02:46:07;;;;;;;15.83;4.20;;;0.90;1.00;;;;;;5053950;28;20945;-59
2022/01/21 02:48:37;;;;;;;11.23;3.30;;;0.90;1.00;;;;;;5054592;28;20459;-59
2022/01/21 02:51:05;;;;;;;7.87;3.07;;;0.90;1.00;;;;;;5053847;28;20471;-59
2022/01/21 02:54:03;;;;;;;7.77;2.83;;;0.90;1.00;;;;;;5054026;28;20462;-58
2022/01/21 02:56:27;;;;;;;15.70;3.63;;;0.80;1.00;;;;;;5053390;28;20457;-60
2022/01/21 02:58:53;;;;;;;10.30;3.37;;;0.80;1.00;;;;;;5054027;28;20453;-57
2022/01/21 03:01:21;;;;;;;11.30;2.97;;;0.80;1.00;;;;;;5053543;28;20472;-56
2022/01/21 03:03:48;;;;;;;11.37;3.77;;;0.80;1.00;;;;;;5053898;28;20454;-57
2022/01/21 03:06:16;;;;;;;12.70;3.57;;;0.80;1.00;;;;;;5053945;28;20462;-57
2022/01/21 03:08:44;;;;;;;12.33;3.73;;;0.80;1.00;;;;;;5054405;28;20457;-59
2022/01/21 03:11:12;;;;;;;7.27;3.43;;;0.80;1.00;;;;;;5056969;28;20468;-59
2022/01/21 03:13:39;;;;;;;12.17;3.80;;;0.80;1.00;;;;;;5056212;28;20932;-58
2022/01/21 03:16:06;;;;;;;12.03;3.63;;;0.80;1.00;;;;;;5053491;28;20455;-59
2022/01/21 03:18:32;;;;;;;11.10;3.43;;;0.80;1.00;;;;;;5053168;28;20447;-55
2022/01/21 03:20:59;;;;;;;13.23;3.03;;;0.80;1.00;;;;;;5052991;28;20535;-59
2022/01/21 03:23:28;;;;;;;9.53;3.47;;;0.80;1.00;;;;;;5053543;28;20512;-58
2022/01/21 03:25:56;;;;;;;12.27;3.67;;;0.80;1.00;;;;;;5053265;28;20456;-58
2022/01/21 03:28:23;;;;;;;10.70;2.90;;;0.80;1.00;;;;;;5053452;28;20457;-59
2022/01/21 03:30:51;;;;;;;8.17;3.33;;;0.70;1.00;;;;;;5053192;28;20470;-59
2022/01/21 03:33:17;;;;;;;8.47;3.07;;;0.70;1.00;;;;;;5053314;28;21404;-59
2022/01/21 03:35:44;;;;;;;9.23;3.40;;;0.70;1.00;;;;;;5053165;28;20860;-58
2022/01/21 03:38:11;;;;;;;7.87;3.47;;;0.80;1.00;;;;;;5053279;28;20574;-59
2022/01/21 03:40:38;;;;;;;11.90;2.40;;;0.80;1.00;;;;;;5053145;28;20501;-56
2022/01/21 03:43:06;;;;;;;12.67;3.83;;;0.90;1.00;;;;;;5053149;28;20443;-57
2022/01/21 03:45:33;;;;;;;11.53;2.90;;;1.00;1.00;;;;;;5053143;28;20460;-59
2022/01/21 03:48:00;;;;;;;12.17;3.03;;;1.00;1.00;;;;;;5052650;28;21004;-58
2022/01/21 03:50:32;;;;;;;15.40;3.67;;;1.00;1.00;;;;;;5052735;28;20479;-56
2022/01/21 03:53:00;;;;;;;9.10;3.00;;;1.10;1.00;;;;;;5053177;28;20448;-59
2022/01/21 03:55:27;;;;;;;9.00;2.80;;;1.10;1.00;;;;;;5052962;28;20452;-59
2022/01/21 03:57:53;;;;;;;14.13;3.07;;;1.00;1.00;;;;;;5052635;28;20458;-58
2022/01/21 04:00:24;;;;;;;11.23;3.13;;;1.00;1.00;;;;;;5052366;28;20499;-59
2022/01/21 04:02:51;;;;;;;11.40;3.30;;;1.00;1.00;;;;;;5052759;28;20436;-60
2022/01/21 04:05:18;;;;;;;9.03;3.37;;;1.10;1.00;;;;;;5052653;28;20454;-59
2022/01/21 04:07:45;;;;;;;8.83;2.87;;;1.00;1.00;;;;;;5052753;28;20463;-56
2022/01/21 04:10:13;;;;;;;11.93;3.10;;;1.00;1.00;;;;;;5052500;28;20468;-59
2022/01/21 04:12:39;;;;;;;10.70;3.83;;;1.00;1.00;;;;;;5052613;28;20451;-56
2022/01/21 04:15:07;;;;;;;7.87;2.83;;;1.00;1.00;;;;;;5052438;28;20504;-55
2022/01/21 04:17:36;;;;;;;7.53;2.33;;;1.00;1.00;;;;;;5052118;28;20527;-58
2022/01/21 04:20:03;;;;;;;12.60;3.13;;;1.00;1.00;;;;;;5052196;28;20522;-59
2022/01/21 04:22:30;;;;;;;10.00;3.73;;;1.00;1.00;;;;;;5052328;28;20502;-60
2022/01/21 04:24:59;;;;;;;18.47;3.00;;;1.00;1.00;;;;;;5052378;28;20452;-59
2022/01/21 04:27:26;;;;;;;9.60;3.03;;;1.00;1.00;;;;;;5052111;28;20474;-58
2022/01/21 04:29:52;;;;;;;10.63;3.37;;;1.00;1.00;;;;;;5051606;28;21004;-59
2022/01/21 04:32:19;;;;;;;10.33;3.10;;;1.00;1.00;;;;;;5052406;28;20474;-59
2022/01/21 04:34:47;;;;;;;7.93;2.73;;;1.00;1.00;;;;;;5052062;28;20444;-59
2022/01/21 04:37:15;;;;;;;10.63;3.13;;;1.00;1.00;;;;;;5052044;28;20458;-59
2022/01/21 04:39:48;;;;;;;8.40;3.13;;;1.00;1.00;;;;;;5051932;28;20515;-58
2022/01/21 04:47:44;;;;;;;9.53;3.07;;;1.10;1.00;;;;;;5051742;28;20471;-58
2022/01/21 04:50:14;;;;;;;12.13;4.17;;;1.10;1.00;;;;;;5051814;28;21000;-59
2022/01/21 04:52:41;;;;;;;9.77;3.20;;;1.10;1.00;;;;;;5051741;28;20508;-58
2022/01/21 04:55:08;;;;;;;16.60;3.70;;;1.10;1.00;;;;;;5052074;28;20506;-57
2022/01/21 04:57:35;;;;;;;7.20;3.00;;;1.10;1.00;;;;;;5051326;28;20509;-59
2022/01/21 05:00:03;;;;;;;7.47;3.13;;;1.10;1.00;;;;;;5051519;28;20481;-57
2022/01/21 05:02:31;;;;;;;15.83;2.97;;;1.10;1.00;;;;;;5051407;28;20956;-58
2022/01/21 05:04:58;;;;;;;12.47;3.80;;;1.10;1.00;;;;;;5051774;28;20452;-55
2022/01/21 05:07:28;;;;;;;11.40;3.47;;;1.10;1.00;;;;;;5051505;28;20456;-59
2022/01/21 05:09:55;;;;;;;5.73;2.93;;;1.10;1.00;;;;;;5051705;28;20440;-56
2022/01/21 05:12:24;;;;;;;9.50;3.23;;;1.10;1.00;;;;;;5051949;28;20456;-55
2022/01/21 05:15:05;;;;;;;8.77;3.43;;;1.10;1.00;;;;;;5051740;28;20450;-58
2022/01/21 05:17:40;;;;;;;12.87;3.10;;;1.10;1.00;;;;;;5051715;28;20805;-59
2022/01/21 05:20:07;;;;;;;7.70;3.33;;;1.10;1.00;;;;;;5051189;28;20494;-58
2022/01/21 05:22:35;;;;;;;9.37;3.63;;;1.10;1.00;;;;;;5051649;28;20464;-58
2022/01/21 05:25:02;;;;;;;7.03;3.40;;;1.10;1.00;;;;;;5051421;28;20459;-58
2022/01/21 05:27:29;;;;;;;8.90;2.97;;;1.10;1.00;;;;;;5051459;28;20455;-58
2022/01/21 05:29:55;;;;;;;9.67;3.97;;;1.10;1.00;;;;;;5051571;28;20447;-58
2022/01/21 05:32:22;;;;;;;18.27;3.37;;;1.00;1.00;;;;;;5051138;28;20467;-58
2022/01/21 05:34:49;;;;;;;15.40;3.50;;;1.00;1.00;;;;;;5051304;28;20461;-57
2022/01/21 05:37:15;;;;;;;14.03;3.53;;;1.10;1.00;;;;;;5051185;28;20453;-58
2022/01/21 05:39:45;;;;;;;11.27;3.80;;;1.10;1.00;;;;;;5051818;28;20508;-61
2022/01/21 05:42:12;;;;;;;10.67;3.17;;;1.10;1.00;;;;;;5055395;28;20917;-59
2022/01/21 05:47:23;;;;;;;8.93;3.60;;;1.10;1.00;;;;;;5051998;28;20429;-58
2022/01/21 05:49:50;;;;;;;6.90;2.73;;;1.10;1.00;;;;;;5054427;28;20497;-57
2022/01/21 05:52:18;;;;;;;11.07;3.70;;;1.20;1.00;;;;;;5055338;28;20450;-54
2022/01/21 05:54:47;;;;;;;9.33;3.87;;;1.10;1.00;;;;;;5054646;28;20448;-59
2022/01/21 05:57:17;;;;;;;9.50;3.90;;;1.20;1.00;;;;;;5054704;28;20444;-58
2022/01/21 05:59:45;;;;;;;7.20;3.23;;;1.20;1.00;;;;;;5054836;28;20444;-56
2022/01/21 06:02:13;;;;;;;7.73;3.13;;;1.20;1.00;;;;;;5054575;28;20447;-59
2022/01/21 06:04:43;;;;;;;8.37;3.17;;;1.20;1.00;;;;;;5054787;28;20491;-58
2022/01/21 06:07:10;;;;;;;9.80;3.70;;;1.20;1.00;;;;;;5054755;28;20501;-60
2022/01/21 06:09:38;;;;;;;13.50;4.13;;;1.30;1.00;;;;;;5054425;28;20506;-56
2022/01/21 06:12:07;;;;;;;13.93;3.70;;;1.30;1.00;;;;;;5054403;28;20503;-57
2022/01/21 06:14:34;;;;;;;8.67;3.40;;;1.40;1.00;;;;;;5054838;28;20448;-59
2022/01/21 06:17:01;;;;;;;7.77;3.47;;;1.40;1.00;;;;;;5055010;28;20535;-58
2022/01/21 06:19:27;;;;;;;6.87;3.27;;;1.40;1.00;;;;;;5055478;28;20452;-63
2022/01/21 06:21:54;;;;;;;11.90;4.33;;;1.40;1.00;;;;;;5054629;28;20488;-60
2022/01/21 06:24:21;;;;;;;8.90;3.40;;;1.40;1.00;;;;;;5054017;28;20452;-59
2022/01/21 06:26:48;;;;;;;12.97;3.73;;;1.40;1.00;;;;;;5054010;28;20462;-57
2022/01/21 06:29:16;;;;;;;14.77;4.07;;;1.40;1.00;;;;;;5054279;28;20455;-59
2022/01/21 06:31:43;;;;;;;6.47;3.30;;;1.40;1.00;;;;;;5056136;28;20467;-60
2022/01/21 06:34:10;;;;;;;11.10;3.43;;;1.30;1.00;;;;;;5056997;28;20449;-60
2022/01/21 06:36:36;;;;;;;10.20;3.80;;;1.30;1.00;;;;;;5056304;28;20448;-58
2022/01/21 06:39:03;;;;;;;7.67;3.67;;;1.30;1.00;;;;;;5053517;28;20510;-60
2022/01/21 06:41:30;;;;;;;8.23;3.33;;;1.30;1.00;;;;;;5053884;28;20488;-55
2022/01/21 06:43:56;;;;;;;8.47;3.77;;;1.40;1.00;;;;;;5053430;28;20938;-57
2022/01/21 06:46:24;;;;;;;10.33;3.17;;;1.30;1.00;;;;;;5053525;28;20467;-60
2022/01/21 06:48:51;;;;;;;13.10;3.97;;;1.30;1.00;;;;;;5053459;28;20471;-60
2022/01/21 06:51:18;;;;;;;10.53;4.07;;;1.40;1.00;;;;;;5053207;28;20540;-61
2022/01/21 06:53:44;;;;;;;12.63;4.10;;;1.30;1.00;;;;;;5053876;28;20455;-60
2022/01/21 06:56:11;;;;;;;12.30;4.27;;;1.40;1.00;;;;;;5053287;28;20448;-58
2022/01/21 06:58:38;;;;;;;10.47;3.40;;;1.30;1.00;;;;;;5053668;28;20450;-59
2022/01/21 07:01:04;;;;;;;11.40;3.80;;;1.30;1.00;;;;;;5053011;28;20488;-59
2022/01/21 07:03:32;;;;;;;11.20;3.90;;;1.30;1.00;;;;;;5053305;28;20451;-61
2022/01/21 07:05:59;;;;;;;12.03;4.77;;;1.30;1.00;;;;;;5053037;28;20505;-61
2022/01/21 07:08:27;;;;;;;7.00;3.90;;;1.30;1.00;;;;;;5053272;28;20479;-61
2022/01/21 07:10:54;;;;;;;11.63;4.40;;;1.30;1.00;;;;;;5053451;28;20491;-56
2022/01/21 07:13:20;;;;;;;10.80;4.20;;;1.30;1.00;;;;;;5053332;28;20445;-61
2022/01/21 07:15:47;;;;;;;14.40;4.47;;;1.10;1.00;;;;;;5052995;28;20501;-59
2022/01/21 07:18:14;;;;;;;6.47;4.20;;;1.20;1.00;;;;;;5052903;28;20448;-59
2022/01/21 07:20:42;;;;;;;12.80;3.90;;;1.10;1.00;;;;;;5052856;28;20484;-59
2022/01/21 07:23:09;;;;;;;8.33;3.40;;;1.10;1.00;;;;;;5053231;28;20453;-58
2022/01/21 07:25:37;;;;;;;11.53;4.20;;;1.00;1.00;;;;;;5052401;28;20444;-55
2022/01/21 07:28:05;;;;;;;8.47;3.40;;;1.00;1.00;;;;;;5053629;28;20506;-63
2022/01/21 07:30:32;;;;;;;6.87;3.23;;;1.00;1.00;;;;;;5053126;28;20523;-62
2022/01/21 07:32:59;;;;;;;7.40;3.23;;;1.00;1.00;;;;;;5053371;28;20487;-61
2022/01/21 07:35:26;;;;;;;14.03;4.00;;;1.00;1.00;;;;;;5053122;28;20451;-63
2022/01/21 07:37:54;;;;;;;8.77;4.40;;;1.00;1.00;;;;;;5053096;28;20505;-63
2022/01/21 07:40:21;;;;;;;13.87;4.40;;;1.00;1.00;;;;;;5052744;28;20494;-64
2022/01/21 07:42:48;;;;;;;7.80;3.47;;;1.00;1.00;;;;;;5052419;28;20458;-61
2022/01/21 07:45:14;;;;;;;7.73;3.60;;;1.00;1.00;;;;;;5052296;28;20465;-60
2022/01/21 07:47:41;;;;;;;10.07;4.50;;;1.00;1.00;;;;;;5051897;28;20935;-58
2022/01/21 07:50:09;;;;;;;12.40;4.63;;;1.00;1.00;;;;;;5052257;28;20982;-60
2022/01/21 07:52:36;;;;;;;12.07;4.43;;;0.90;1.00;;;;;;5052927;28;20461;-63
2022/01/21 07:55:04;;;;;;;10.13;4.67;;;0.90;1.00;;;;;;5052061;28;20451;-61
2022/01/21 07:57:32;;;;;;;14.23;4.67;;;0.90;1.00;;;;;;5052280;28;20485;-59
2022/01/21 07:59:58;;;;;;;9.87;4.30;;;1.00;1.00;;;;;;5052571;28;20454;-56
2022/01/21 08:02:26;;;;;;;13.13;4.90;;;1.10;1.00;;;;;;5052289;28;20996;-53
2022/01/21 08:04:54;;;;;;;14.73;4.77;;;1.20;1.00;;;;;;5051813;28;20513;-56
2022/01/21 08:07:21;;;;;;;12.50;4.77;;;1.20;1.00;;;;;;5052125;28;20957;-57
2022/01/21 08:09:49;;;;;;;12.63;4.93;;;1.20;1.00;;;;;;5052712;28;21020;-55
2022/01/21 08:12:18;;;;;;;13.07;5.17;;;1.30;1.00;;;;;;5052739;28;20535;-57
2022/01/21 08:14:45;;;;;;;9.50;4.93;;;1.20;1.00;;;;;;5053214;28;20473;-55
2022/01/21 08:17:11;;;;;;;10.97;4.63;;;1.30;1.00;;;;;;5051939;28;20467;-61
2022/01/21 08:19:38;;;;;;;12.93;5.70;;;1.30;1.00;;;;;;5052695;28;20455;-59
2022/01/21 08:22:06;;;;;;;13.87;5.03;;;1.30;1.00;;;;;;5051922;28;20857;-61
2022/01/21 08:24:33;;;;;;;15.30;6.70;;;1.30;1.00;;;;;;5051835;28;20534;-60
2022/01/21 08:26:59;;;;;;;13.20;5.97;;;1.40;1.00;;;;;;5051617;28;20448;-56
2022/01/21 08:29:27;;;;;;;14.50;5.90;;;1.40;1.00;;;;;;5051752;28;20456;-61
2022/01/21 08:31:55;;;;;;;15.90;6.70;;;1.40;1.00;;;;;;5051484;28;20476;-62
2022/01/21 08:34:21;;;;;;;11.60;5.97;;;1.40;1.00;;;;;;5051882;28;20974;-63
2022/01/21 08:36:49;;;;;;;12.20;5.93;;;1.40;1.00;;;;;;5051286;28;20853;-62
2022/01/21 08:39:17;;;;;;;17.90;7.03;;;1.50;1.00;;;;;;5051620;28;20460;-60
2022/01/21 08:41:44;;;;;;;11.70;6.57;;;1.50;1.00;;;;;;5051350;28;20498;-63
2022/01/21 08:44:11;;;;;;;15.87;6.03;;;1.40;1.00;;;;;;5051542;28;20462;-64
2022/01/21 08:46:39;;;;;;;18.70;6.97;;;1.50;1.00;;;;;;5051117;28;20463;-62
2022/01/21 08:49:08;;;;;;;13.10;6.73;;;1.50;1.00;;;;;;5051193;28;20498;-61
2022/01/21 08:51:46;;;;;;;16.00;7.20;;;1.50;1.00;;;;;;5051252;28;21001;-60
2022/01/21 08:54:13;;;;;;;14.17;6.33;;;1.50;1.00;;;;;;5051383;28;20452;-62
2022/01/21 08:56:40;;;;;;;17.47;6.77;;;1.60;1.00;;;;;;5050584;28;20452;-58
2022/01/21 08:59:06;;;;;;;14.40;7.03;;;1.60;1.00;;;;;;5051541;28;20459;-58
2022/01/21 09:01:33;;;;;;;11.13;6.93;;;1.60;1.00;;;;;;5050878;28;20601;-61
2022/01/21 09:04:01;;;;;;;15.77;6.47;;;1.60;1.00;;;;;;5051630;28;20700;-62
2022/01/21 09:06:29;;;;;;;14.80;6.47;;;1.60;1.00;;;;;;5050806;28;20456;-63
2022/01/21 09:08:56;;;;;;;19.73;7.53;;;1.60;1.00;;;;;;5051102;28;20456;-60
2022/01/21 09:11:23;;;;;;;20.17;6.80;;;1.70;1.00;;;;;;5051436;28;20479;-59
2022/01/21 09:13:50;;;;;;;19.23;6.47;;;1.70;1.00;;;;;;5052026;28;21010;-61
2022/01/21 09:16:17;;;;;;;13.37;7.90;;;1.80;1.00;;;;;;5054300;28;20455;-61
2022/01/21 09:18:47;;;;;;;14.63;6.93;;;1.80;1.00;;;;;;5055361;28;20451;-58
2022/01/21 09:21:17;;;;;;;15.80;6.90;;;1.90;1.00;;;;;;5056218;28;20998;-62
2022/01/21 09:23:47;;;;;;;14.57;6.43;;;1.90;1.00;;;;;;5055808;28;20440;-57
2022/01/21 09:26:15;;;;;;;19.07;7.73;;;1.90;1.00;;;;;;5054509;28;20971;-57
2022/01/21 09:28:42;;;;;;;12.57;7.03;;;1.90;1.00;;;;;;5055541;28;20475;-57
2022/01/21 09:31:09;;;;;;;21.27;8.00;;;2.00;1.00;;;;;;5055440;28;20460;-59
2022/01/21 09:33:35;;;;;;;12.87;7.50;;;2.00;1.00;;;;;;5055360;28;20455;-59
2022/01/21 09:36:02;;;;;;;16.63;8.20;;;2.00;1.00;;;;;;5055473;28;20451;-61
2022/01/21 09:38:31;;;;;;;15.80;8.17;;;2.10;1.00;;;;;;5055127;28;20463;-61
2022/01/21 09:40:58;;;;;;;18.70;9.53;;;2.10;1.00;;;;;;5054851;28;20525;-61
2022/01/21 09:43:25;;;;;;;16.70;8.57;;;2.20;1.00;;;;;;5054824;28;20456;-61
2022/01/21 09:45:54;;;;;;;18.87;9.07;;;2.30;1.00;;;;;;5054492;28;20459;-60
2022/01/21 09:48:24;;;;;;;19.83;9.23;;;2.30;1.00;;;;;;5054687;28;20538;-60
2022/01/21 09:50:52;;;;;;;23.07;8.63;;;2.30;1.00;;;;;;5054457;28;20503;-60
2022/01/21 09:53:25;;;;;;;14.33;7.53;;;2.40;1.00;;;;;;5055112;28;20467;-62
2022/01/21 09:55:55;;;;;;;21.60;8.40;;;2.40;1.00;;;;;;5054871;28;20455;-61
2022/01/21 09:58:23;;;;;;;23.70;11.90;;;2.40;1.00;;;;;;5056158;28;20938;-60
2022/01/21 10:00:50;;;;;;;17.53;8.60;;;2.40;1.00;;;;;;5055706;28;20838;-61
2022/01/21 10:03:18;;;;;;;17.00;8.67;;;2.50;1.00;;;;;;5055926;28;20825;-60
2022/01/21 10:05:47;;;;;;;20.40;7.37;;;2.50;1.00;;;;;;5054984;28;20978;-64
2022/01/21 10:08:15;;;;;;;12.30;7.27;;;2.60;1.00;;;;;;5055194;28;20472;-59
2022/01/21 10:10:43;;;;;;;13.77;7.23;;;2.50;1.00;;;;;;5054496;28;20468;-55
2022/01/21 10:13:16;;;;;;;15.67;7.53;;;2.60;1.00;;;;;;5054410;28;20448;-59
2022/01/21 10:15:43;;;;;;;12.40;8.30;;;2.70;1.00;;;;;;5054328;28;20845;-61
2022/01/21 10:18:15;;;;;;;19.27;9.43;;;2.80;1.00;;;;;;5054498;28;20451;-62
2022/01/21 10:20:57;;;;;;;18.27;10.43;;;2.90;1.00;;;;;;5054299;28;20234;-61
2022/01/21 10:23:24;;;;;;;21.77;11.30;;;2.90;1.00;;;;;;5054249;28;20202;-63
2022/01/21 10:26:01;;;;;;;22.80;11.40;;;3.00;1.00;;;;;;5053407;28;20210;-62
2022/01/21 10:28:30;;;;;;;26.03;14.50;;;3.10;1.00;;;;;;5053812;28;20252;-63
2022/01/21 10:31:13;;;;;;;22.33;13.63;;;3.20;1.00;;;;;;5053967;28;20253;-63
2022/01/21 10:33:43;;;;;;;25.57;14.97;;;3.30;1.00;;;;;;5053975;28;20205;-64
2022/01/21 10:36:15;;;;;;;28.67;13.03;;;3.40;1.00;;;;;;5053563;28;20219;-64
2022/01/21 10:38:45;;;;;;;26.27;11.53;;;3.40;1.00;;;;;;5054001;28;20275;-63
2022/01/21 10:41:13;;;;;;;24.27;11.13;;;3.40;1.00;;;;;;5054102;28;20225;-63
2022/01/21 10:43:42;;;;;;;29.70;12.90;;;3.50;1.00;;;;;;5053721;28;20212;-62
2022/01/21 10:46:09;;;;;;;21.27;10.33;;;3.50;1.00;;;;;;5053185;28;20690;-62
2022/01/21 10:48:58;;;;;;;15.87;8.90;;;3.50;1.00;;;;;;5053661;28;20238;-60
2022/01/21 10:51:26;;;;;;;18.00;8.27;;;3.50;1.00;;;;;;5053804;28;20233;-63
2022/01/21 10:53:54;;;;;;;18.27;8.57;;;3.60;1.00;;;;;;5053914;28;20207;-63
2022/01/21 10:56:22;;;;;;;16.70;8.83;;;3.60;1.00;;;;;;5053019;28;20211;-60
2022/01/21 10:58:52;;;;;;;15.43;8.83;;;3.60;1.00;;;;;;5053700;28;20457;-60
2022/01/21 11:01:23;;;;;;;17.00;8.50;;;3.70;1.00;;;;;;5053204;28;20293;-63
2022/01/21 11:04:01;;;;;;;16.37;7.67;;;3.80;1.00;;;;;;5053582;28;20219;-59
2022/01/21 11:06:39;;;;;;;16.20;7.00;;;3.90;1.00;;;;;;5052836;28;20206;-59
2022/01/21 11:09:20;;;;;;;13.73;7.40;;;3.80;1.00;;;;;;5053307;28;20720;-60
2022/01/21 11:11:48;;;;;;;12.40;6.53;;;3.80;1.00;;;;;;5052904;28;20717;-62
2022/01/21 11:14:17;;;;;;;17.33;6.57;;;3.90;1.00;;;;;;5053382;28;20264;-60
2022/01/21 11:16:46;;;;;;;9.40;6.17;;;3.80;1.00;;;;;;5052895;28;20211;-58
2022/01/21 11:19:16;;;;;;;12.30;5.50;;;3.90;1.00;;;;;;5053218;28;20208;-63
2022/01/21 11:21:53;;;;;;;12.40;5.80;;;3.90;1.00;;;;;;5053172;28;20581;-58
2022/01/21 11:24:22;;;;;;;12.90;6.30;;;4.00;1.00;;;;;;5052781;28;20214;-60
2022/01/21 11:27:10;;;;;;;11.30;5.80;;;4.10;1.00;;;;;;5052581;28;20267;-54
2022/01/21 11:29:39;;;;;;;14.10;6.07;;;4.20;1.00;;;;;;5053251;28;20216;-56
2022/01/21 11:32:07;;;;;;;12.07;5.60;;;4.40;1.00;;;;;;5053389;28;20590;-58
2022/01/21 11:34:35;;;;;;;12.70;5.80;;;4.50;1.00;;;;;;5053349;28;20209;-60
2022/01/21 11:37:03;;;;;;;14.07;5.63;;;4.60;1.00;;;;;;5052235;28;20208;-59
2022/01/21 11:39:31;;;;;;;11.40;5.37;;;4.70;1.00;;;;;;5052744;28;20213;-60
2022/01/21 11:42:00;;;;;;;12.20;5.30;;;4.80;1.00;;;;;;5052744;28;20284;-63
2022/01/21 11:44:29;;;;;;;15.83;6.60;;;4.90;99.90;;;;;;5052714;28;20235;-62
2022/01/21 11:47:13;;;;;;;13.57;5.17;;;5.00;99.90;;;;;;5052377;28;20209;-62
2022/01/21 11:49:42;;;;;;;11.03;4.80;;;5.10;99.90;;;;;;5052714;28;20212;-63
2022/01/21 11:52:12;;;;;;;11.50;4.73;;;5.00;99.90;;;;;;5052857;28;20225;-61
2022/01/21 11:54:40;;;;;;;14.13;4.77;;;4.80;99.90;;;;;;5052758;28;20263;-61
2022/01/21 11:57:08;;;;;;;11.57;4.43;;;4.60;99.90;;;;;;5052505;28;20215;-60
2022/01/21 11:59:46;;;;;;;11.13;4.87;;;4.60;99.90;;;;;;5052385;28;20630;-62
2022/01/21 12:02:26;;;;;;;14.83;4.57;;;4.60;99.90;;;;;;5053004;28;20240;-58
2022/01/21 12:04:54;;;;;;;11.47;5.10;;;4.60;99.90;;;;;;5052315;28;20201;-61
2022/01/21 12:07:51;;;;;;;14.23;5.03;;;4.70;99.90;;;;;;5052122;28;20218;-58
2022/01/21 12:10:30;;;;;;;11.57;4.60;;;4.70;99.90;;;;;;5052717;28;20573;-60
2022/01/21 12:13:04;;;;;;;13.63;5.03;;;4.70;99.90;;;;;;5052401;28;20239;-59
2022/01/21 12:16:06;;;;;;;10.93;4.30;;;4.80;99.90;;;;;;5052315;28;20412;-58
2022/01/21 12:19:08;;;;;;;11.83;4.80;;;4.70;99.90;;;;;;5052255;28;20211;-59
2022/01/21 12:21:37;;;;;;;9.20;4.53;;;4.60;99.90;;;;;;5052432;28;20273;-64
2022/01/21 12:24:05;;;;;;;13.80;4.70;;;4.60;99.90;;;;;;5052144;28;20191;-61
2022/01/21 12:26:32;;;;;;;8.20;4.93;;;4.50;99.90;;;;;;5052279;28;20213;-63
2022/01/21 12:29:27;;;;;;;9.80;4.57;;;4.50;1.00;;;;;;5052319;28;20212;-62
2022/01/21 12:32:00;;;;;;;8.60;3.93;;;4.50;1.00;;;;;;5017133;28;20227;-63
2022/01/21 12:34:49;;;;;;;13.00;4.03;;;4.50;1.00;;;;;;5052507;28;20250;-64
2022/01/21 12:37:23;;;;;;;11.33;3.90;;;4.50;1.00;;;;;;5051472;28;20205;-63
2022/01/21 12:39:49;;;;;;;13.27;4.20;;;4.50;1.00;;;;;;5052300;28;20252;-62
2022/01/21 12:42:28;;;;;;;10.77;3.97;;;4.60;1.00;;;;;;5051895;28;20236;-60
2022/01/21 12:44:57;;;;;;;8.27;3.13;;;4.60;1.00;;;;;;5051943;28;20298;-62
2022/01/21 12:47:37;;;;;;;10.67;3.30;;;4.70;1.00;;;;;;5052773;28;20200;-66
2022/01/21 12:50:15;;;;;;;10.13;3.00;;;4.80;1.00;;;;;;5051869;28;20235;-63
2022/01/21 12:52:52;;;;;;;6.90;3.10;;;4.80;1.00;;;;;;5052316;28;20205;-58
2022/01/21 12:58:08;;;;;;;6.87;2.80;;;4.70;1.00;;;;;;5052256;28;20259;-60
2022/01/21 13:00:34;;;;;;;11.67;3.10;;;4.60;1.00;;;;;;5052264;28;20229;-60
2022/01/21 13:03:08;;;;;;;10.63;3.00;;;4.50;1.00;;;;;;5051976;28;20232;-60
2022/01/21 13:05:44;;;;;;;5.97;2.63;;;4.50;1.00;;;;;;5051482;28;20200;-60
2022/01/21 13:08:34;;;;;;;9.10;3.40;;;4.60;1.00;;;;;;5051364;28;20220;-59
2022/01/21 13:11:11;;;;;;;6.93;2.97;;;4.60;1.00;;;;;;5051729;28;20247;-62
2022/01/21 13:13:49;;;;;;;13.90;3.30;;;4.50;1.00;;;;;;5051428;28;20616;-60
2022/01/21 13:16:25;;;;;;;8.77;3.20;;;4.50;1.00;;;;;;5051149;28;20621;-59
2022/01/21 13:19:00;;;;;;;10.17;3.50;;;4.60;1.00;;;;;;5051239;28;20235;-62
2022/01/21 13:21:28;;;;;;;8.27;3.07;;;4.60;1.00;;;;;;5051642;28;20311;-61
2022/01/21 13:23:57;;;;;;;12.07;2.83;;;4.70;1.00;;;;;;5051211;28;20277;-63
2022/01/21 13:26:27;;;;;;;9.83;3.33;;;4.70;1.00;;;;;;5052116;28;20247;-61
2022/01/21 13:28:55;;;;;;;10.13;2.83;;;4.80;1.00;;;;;;5058345;28;20216;-60
2022/01/21 13:31:22;;;;;;;9.47;3.37;;;4.80;1.00;;;;;;5058774;28;20229;-63
2022/01/21 13:33:50;;;;;;;8.43;3.53;;;4.80;1.00;;;;;;5053739;28;20208;-63
2022/01/21 13:36:40;;;;;;;12.43;3.10;;;4.80;1.00;;;;;;5051279;28;20204;-62
2022/01/21 13:39:11;;;;;;;6.63;2.47;;;4.80;1.00;;;;;;5051862;28;20216;-63
2022/01/21 13:41:57;;;;;;;14.10;3.03;;;4.80;1.00;;;;;;5052350;28;20317;-66
2022/01/21 13:44:41;;;;;;;12.77;2.60;;;4.70;1.00;;;;;;5051769;28;20251;-61
2022/01/21 13:47:27;;;;;;;14.17;3.03;;;4.80;1.00;;;;;;5051894;28;20214;-61
2022/01/21 13:49:54;;;;;;;9.97;3.00;;;4.80;1.00;;;;;;5051777;28;20680;-58
2022/01/21 13:52:35;;;;;;;9.77;3.07;;;4.70;1.00;;;;;;5051392;28;20209;-58
2022/01/21 13:55:02;;;;;;;10.33;3.10;;;4.80;1.00;;;;;;5051046;28;20372;-59
2022/01/21 13:57:29;;;;;;;10.87;3.03;;;4.80;1.00;;;;;;5051020;28;20205;-60